Time;durP1;ratioP1;P1;durP2;ratioP2;P2;SDS_P1;SDS_P2;PMS_P1;PMS_P2;Temp;Humidity;BMP_temperature;BMP_pressure;BME280_temperature;BME280_humidity;BME280_pressure;Samples;Min_cycle;Max_cycle;Signal;HPM_P1;HPM_P2
2022/06/06 00:01:21;;;;;;;11.57;3.25;;;12.30;99.90;12.10;98628.00;;;;4982550;28;82034;-54
2022/06/06 00:03:49;;;;;;;6.13;3.30;;;12.20;99.90;12.00;98623.00;;;;4986068;28;82987;-55
2022/06/06 00:06:20;;;;;;;5.75;3.30;;;12.10;99.90;11.90;98625.00;;;;4984357;28;82616;-53
2022/06/06 00:08:47;;;;;;;;;;;12.00;99.90;11.90;98622.00;;;;4980802;28;83418;-53
2022/06/06 00:11:14;;;;;;;7.13;3.67;;;11.90;99.90;11.80;98622.00;;;;5009067;28;83093;-52
2022/06/06 00:13:45;;;;;;;5.50;3.50;;;11.90;99.90;11.70;98619.00;;;;4982323;28;82334;-53
2022/06/06 00:16:11;;;;;;;4.57;3.07;;;11.80;99.90;11.70;98633.00;;;;4983003;28;83437;-57
2022/06/06 00:18:38;;;;;;;5.50;3.20;;;11.80;99.90;11.70;98624.00;;;;4984060;28;84387;-50
2022/06/06 00:21:08;;;;;;;5.25;3.17;;;11.80;99.90;11.70;98621.00;;;;4983307;28;82122;-52
2022/06/06 00:23:36;;;;;;;6.95;3.25;;;11.70;99.90;11.60;98623.00;;;;5002176;28;82372;-55
2022/06/06 00:26:10;;;;;;;5.75;2.90;;;11.70;99.90;11.50;98607.00;;;;4983045;28;82461;-53
2022/06/06 00:28:39;;;;;;;5.40;3.28;;;11.60;99.90;11.50;98611.00;;;;4982517;28;83035;-57
2022/06/06 00:36:37;;;;;;;5.30;3.65;;;11.50;99.90;11.40;98613.00;;;;4983489;28;83092;-53
2022/06/06 00:39:06;;;;;;;7.18;3.17;;;11.50;99.90;11.40;98622.00;;;;5005391;28;82365;-56
2022/06/06 00:41:42;;;;;;;4.75;3.05;;;11.50;99.90;11.50;98616.00;;;;4982902;28;82838;-53
2022/06/06 00:44:15;;;;;;;5.10;3.00;;;11.50;99.90;11.50;98627.00;;;;4982203;28;82396;-53
2022/06/06 00:46:56;;;;;;;8.88;3.35;;;11.50;99.90;11.50;98626.00;;;;4983394;28;82539;-55
2022/06/06 00:49:52;;;;;;;4.28;3.25;;;11.60;99.90;11.50;98630.00;;;;4980170;28;82935;-56
2022/06/06 00:52:29;;;;;;;6.88;3.10;;;11.60;99.90;11.50;98623.00;;;;5006767;28;82271;-53
2022/06/06 00:55:00;;;;;;;4.45;3.00;;;11.60;99.90;11.50;98617.00;;;;4965903;28;82401;-58
2022/06/06 00:57:33;;;;;;;5.38;3.15;;;11.60;99.90;11.60;98634.00;;;;4983175;28;82668;-54
2022/06/06 01:00:11;;;;;;;5.75;3.05;;;11.60;99.90;11.50;98624.00;;;;4983205;28;82327;-55
2022/06/06 01:02:40;;;;;;;3.83;2.97;;;11.60;99.90;11.60;98628.00;;;;4965999;28;82047;-54
2022/06/06 01:05:07;;;;;;;9.65;3.22;;;11.60;99.90;11.50;98622.00;;;;4986338;28;82331;-53
2022/06/06 01:07:33;;;;;;;5.50;2.95;;;11.60;99.90;11.60;98623.00;;;;4965201;28;83679;-54
2022/06/06 01:10:01;;;;;;;5.38;2.95;;;11.60;99.90;11.60;98619.00;;;;4982979;28;83343;-54
2022/06/06 01:12:31;;;;;;;4.30;2.83;;;11.60;99.90;11.60;98625.00;;;;4983070;28;82403;-54
2022/06/06 01:15:04;;;;;;;8.65;3.30;;;11.70;99.90;11.60;98612.00;;;;5002611;28;82092;-51
2022/06/06 01:18:06;;;;;;;9.82;3.10;;;11.70;99.90;11.70;98617.00;;;;4982890;28;83916;-54
2022/06/06 01:21:11;;;;;;;6.43;2.97;;;11.70;99.90;11.80;98623.00;;;;4966430;28;82329;-53
2022/06/06 01:24:02;;;;;;;5.10;2.65;;;11.80;99.90;11.80;98609.00;;;;4969823;28;82079;-56
2022/06/06 01:26:54;;;;;;;6.00;2.93;;;11.80;99.90;11.80;98613.00;;;;4965867;28;82057;-54
2022/06/06 01:29:36;;;;;;;6.15;3.17;;;11.90;99.90;11.80;98609.00;;;;5004711;28;82585;-53
2022/06/06 01:32:11;;;;;;;6.00;2.70;;;11.80;99.90;11.70;98616.00;;;;4982163;28;82734;-52
2022/06/06 01:34:42;;;;;;;6.57;3.17;;;11.80;99.90;11.70;98626.00;;;;5005531;28;83384;-51
2022/06/06 01:37:32;;;;;;;5.57;3.65;;;11.80;99.90;11.70;98616.00;;;;4981447;28;82483;-54
2022/06/06 01:40:01;;;;;;;6.10;3.17;;;11.80;99.90;11.70;98631.00;;;;4982922;28;83660;-50
2022/06/06 01:43:16;;;;;;;5.60;3.30;;;11.80;99.90;11.70;98631.00;;;;4965745;28;82847;-55
2022/06/06 01:46:08;;;;;;;6.05;3.58;;;11.80;99.90;11.70;98624.00;;;;4952410;28;82449;-53
2022/06/06 01:48:39;;;;;;;7.85;3.30;;;11.70;99.90;11.70;98622.00;;;;4982613;28;83091;-55
2022/06/06 01:51:16;;;;;;;4.82;3.35;;;11.70;99.90;11.60;98618.00;;;;4982789;28;83343;-50
2022/06/06 01:53:43;;;;;;;5.40;3.10;;;11.70;99.90;11.70;98621.00;;;;4965883;28;82274;-57
2022/06/06 01:56:14;;;;;;;4.55;3.17;;;11.70;99.90;12.00;98606.00;;;;4982693;28;82480;-53
2022/06/06 01:58:40;;;;;;;4.28;3.15;;;12.00;99.90;12.50;98614.00;;;;4988958;28;82320;-53
2022/06/06 02:01:06;;;;;;;4.85;3.22;;;12.40;99.90;13.10;98614.00;;;;4982627;28;83428;-57
2022/06/06 02:03:33;;;;;;;5.15;3.30;;;12.90;99.90;13.60;98615.00;;;;4982468;28;83172;-55
2022/06/06 02:06:03;;;;;;;5.70;3.40;;;13.40;99.90;13.90;98605.00;;;;4963334;28;82358;-55
2022/06/06 02:08:31;;;;;;;5.78;2.85;;;13.70;99.90;14.10;98615.00;;;;4981410;28;83780;-56
2022/06/06 02:10:57;;;;;;;5.82;3.28;;;13.90;99.90;14.40;98614.00;;;;4982749;28;82501;-55
2022/06/06 02:13:25;;;;;;;7.15;2.85;;;14.20;99.90;14.80;98615.00;;;;4981607;28;83439;-52
2022/06/06 02:15:52;;;;;;;3.90;2.85;;;14.50;99.90;14.80;98613.00;;;;4982266;28;82027;-56
2022/06/06 02:18:18;;;;;;;6.90;3.10;;;14.60;99.90;15.10;98606.00;;;;4982661;28;82198;-54
2022/06/06 02:20:45;;;;;;;7.40;3.20;;;14.80;99.90;15.10;98605.00;;;;4982620;28;82600;-54
2022/06/06 02:23:12;;;;;;;9.35;3.30;;;14.80;99.90;15.30;98606.00;;;;4982332;28;82421;-54
2022/06/06 02:25:38;;;;;;;5.97;3.20;;;15.00;99.90;15.70;98601.00;;;;4980823;28;83072;-57
2022/06/06 02:28:05;;;;;;;4.35;2.65;;;15.40;99.90;16.20;98604.00;;;;4980968;28;82313;-54
2022/06/06 02:30:36;;;;;;;8.23;3.00;;;15.80;99.90;16.00;98602.00;;;;4981990;28;82610;-53
2022/06/06 02:33:03;;;;;;;8.68;3.25;;;15.60;99.90;15.70;98617.00;;;;4981871;28;82515;-55
2022/06/06 02:35:34;;;;;;;5.28;3.35;;;15.40;99.90;15.40;98622.00;;;;4983299;28;82360;-54
2022/06/06 02:38:00;;;;;;;6.70;3.80;;;15.20;99.90;15.30;98627.00;;;;4981994;28;83469;-57
2022/06/06 02:40:30;;;;;;;5.82;3.92;;;15.10;99.90;15.80;98620.00;;;;4982278;28;82690;-56
2022/06/06 02:42:57;;;;;;;5.63;2.83;;;15.50;99.90;16.00;98624.00;;;;4981435;28;82778;-55
2022/06/06 02:45:23;;;;;;;6.47;3.33;;;15.60;99.90;16.50;98621.00;;;;4982114;28;82432;-54
2022/06/06 02:47:56;;;;;;;4.95;3.00;;;16.10;99.90;16.50;98625.00;;;;4982293;28;82321;-57
2022/06/06 02:50:28;;;;;;;5.47;3.30;;;16.10;99.90;16.50;98628.00;;;;4981949;28;83637;-55
2022/06/06 02:52:55;;;;;;;5.50;3.70;;;16.10;99.90;16.50;98622.00;;;;4981912;28;82359;-56
2022/06/06 02:55:21;;;;;;;7.43;3.28;;;16.10;99.90;16.70;98629.00;;;;4977605;28;82155;-56
2022/06/06 02:57:50;;;;;;;4.75;3.20;;;16.30;99.90;16.60;98620.00;;;;4981907;28;82372;-52
2022/06/06 03:00:23;;;;;;;7.85;3.50;;;16.40;99.90;16.50;98630.00;;;;4982320;28;82502;-53
2022/06/06 03:02:49;;;;;;;5.95;3.00;;;16.20;99.90;16.50;98634.00;;;;4978864;28;82271;-55
2022/06/06 03:05:17;;;;;;;6.05;3.50;;;16.20;99.90;16.20;98639.00;;;;4981233;28;82299;-54
2022/06/06 03:08:30;;;;;;;6.32;3.40;;;16.00;99.90;16.30;98635.00;;;;4981536;28;83134;-58
2022/06/06 03:11:36;;;;;;;4.70;3.10;;;16.00;99.90;16.50;98639.00;;;;4960386;28;83230;-56
2022/06/06 03:14:53;;;;;;;4.80;2.83;;;16.10;99.90;16.60;98639.00;;;;4980781;28;83550;-58
2022/06/06 03:20:47;;;;;;;4.38;3.20;;;16.30;99.90;15.90;98638.00;;;;4982729;28;82816;-53
2022/06/06 03:23:45;;;;;;;6.30;3.35;;;15.80;99.90;16.60;98649.00;;;;5009973;28;83341;-54
2022/06/06 03:26:25;;;;;;;4.28;2.90;;;16.10;99.90;17.40;98654.00;;;;4976157;28;82759;-57
2022/06/06 03:29:22;;;;;;;4.20;3.07;;;17.00;99.90;17.80;98646.00;;;;4981428;28;83798;-51
2022/06/06 03:32:16;;;;;;;5.15;3.55;;;17.30;99.90;17.50;98642.00;;;;4981413;28;82505;-56
2022/06/06 03:34:58;;;;;;;7.72;3.50;;;17.10;99.90;16.70;98651.00;;;;4984210;28;82814;-57
2022/06/06 03:37:34;;;;;;;4.72;3.25;;;16.60;99.90;17.10;98653.00;;;;4984688;28;81982;-57
2022/06/06 03:40:27;;;;;;;5.28;3.17;;;16.80;99.90;17.20;98650.00;;;;5000705;28;82107;-58
2022/06/06 03:43:29;;;;;;;6.82;3.35;;;16.90;99.90;17.20;98647.00;;;;5008195;28;83566;-56
2022/06/06 03:46:20;;;;;;;4.20;3.05;;;17.00;99.90;17.70;98658.00;;;;4987025;28;84581;-54
2022/06/06 03:49:29;;;;;;;6.60;3.70;;;17.30;99.90;17.80;98657.00;;;;4981473;28;83287;-56
2022/06/06 03:52:19;;;;;;;4.68;3.17;;;17.40;99.90;18.30;98657.00;;;;5002592;28;82017;-58
2022/06/06 03:55:04;;;;;;;5.25;3.10;;;17.90;99.90;18.50;98666.00;;;;4983722;28;83016;-57
2022/06/06 03:57:34;;;;;;;10.73;3.08;;;18.10;99.90;19.20;98668.00;;;;4980726;28;82422;-56
2022/06/06 04:00:11;;;;;;;7.32;2.78;;;18.70;99.90;19.40;98662.00;;;;4983301;28;83721;-58
2022/06/06 04:02:44;;;;;;;5.22;3.42;;;19.00;99.90;18.40;98662.00;;;;4982293;28;82119;-57
2022/06/06 04:05:15;;;;;;;5.82;2.95;;;18.10;99.90;19.20;98656.00;;;;4983831;28;82978;-58
2022/06/06 04:07:42;;;;;;;8.27;3.10;;;18.80;99.90;19.60;98661.00;;;;4983871;28;82954;-54
2022/06/06 04:10:10;;;;;;;9.43;3.50;;;19.20;99.90;19.30;98646.00;;;;4983889;28;82886;-57
2022/06/06 04:12:52;;;;;;;5.40;3.15;;;19.00;99.90;19.60;98652.00;;;;4982734;28;82922;-58
2022/06/06 04:15:46;;;;;;;5.97;2.90;;;19.20;99.90;19.80;98656.00;;;;4982995;28;82649;-57
2022/06/06 04:19:15;;;;;;;7.25;2.95;;;19.40;99.90;20.50;98652.00;;;;4955899;28;82626;-59
2022/06/06 04:22:28;;;;;;;4.10;2.80;;;19.80;99.90;20.60;98652.00;;;;4951815;28;82592;-54
2022/06/06 04:24:59;;;;;;;4.93;3.20;;;20.00;99.90;20.60;98655.00;;;;4981760;28;81994;-57
2022/06/06 04:28:13;;;;;;;5.85;2.90;;;19.90;99.90;20.60;98654.00;;;;4982968;28;82340;-56
2022/06/06 04:30:47;;;;;;;4.50;3.35;;;20.10;99.90;19.90;98657.00;;;;4977972;28;84044;-57
2022/06/06 04:33:23;;;;;;;6.47;3.00;;;19.40;99.90;20.30;98670.00;;;;4981771;28;82322;-58
2022/06/06 04:36:19;;;;;;;6.93;3.08;;;19.80;99.90;20.80;98670.00;;;;4980743;28;82370;-54
2022/06/06 04:39:06;;;;;;;8.30;3.53;;;20.10;99.90;20.90;98665.00;;;;5003231;28;83828;-58
2022/06/06 04:41:50;;;;;;;5.88;3.08;;;20.20;99.90;20.00;98681.00;;;;4980213;28;83615;-55
2022/06/06 04:44:45;;;;;;;5.65;3.10;;;19.80;99.90;19.40;98682.00;;;;4982672;28;84206;-56
2022/06/06 04:47:21;;;;;;;4.82;3.20;;;19.00;99.90;19.30;98683.00;;;;4969281;28;82514;-58
2022/06/06 04:49:48;;;;;;;5.88;3.50;;;18.80;99.90;19.20;98693.00;;;;4980517;28;82013;-58
2022/06/06 04:52:16;;;;;;;7.35;3.13;;;18.70;99.90;19.40;98695.00;;;;5010830;28;83120;-59
2022/06/06 04:54:45;;;;;;;5.97;3.10;;;19.00;99.90;19.00;98694.00;;;;4982235;28;82599;-57
2022/06/06 04:57:14;;;;;;;6.63;3.15;;;18.60;99.90;19.10;98686.00;;;;4999004;28;82284;-56
2022/06/06 04:59:41;;;;;;;5.20;2.95;;;18.70;99.90;20.00;98688.00;;;;4965552;28;83417;-58
2022/06/06 05:02:07;;;;;;;10.00;3.35;;;19.40;99.90;18.30;98693.00;;;;4998967;28;83861;-57
2022/06/06 05:04:33;;;;;;;8.43;3.10;;;18.10;99.90;18.40;98698.00;;;;4965408;28;82253;-57
2022/06/06 05:07:37;;;;;;;8.27;2.75;;;18.20;99.90;19.20;98702.00;;;;4982958;28;83183;-59
2022/06/06 05:10:56;;;;;;;8.30;3.15;;;18.60;99.90;19.90;98706.00;;;;4938434;28;82227;-55
2022/06/06 05:13:38;;;;;;;5.60;2.80;;;19.20;99.90;19.80;98707.00;;;;4985539;28;82722;-56
2022/06/06 05:16:29;;;;;;;6.35;3.10;;;19.20;99.90;19.20;98709.00;;;;4983004;28;83494;-55
2022/06/06 05:19:06;;;;;;;7.38;3.00;;;18.90;99.90;19.70;98715.00;;;;4965182;28;82267;-56
2022/06/06 05:21:57;;;;;;;6.93;3.42;;;19.10;99.90;20.40;98714.00;;;;4981639;28;82297;-54
2022/06/06 05:25:02;;;;;;;6.50;2.90;;;19.80;99.90;19.40;98719.00;;;;4982571;28;83306;-56
2022/06/06 05:27:34;;;;;;;6.50;3.38;;;19.00;99.90;19.20;98716.00;;;;4939123;28;81908;-56
2022/06/06 05:30:41;;;;;;;;;;;18.90;99.90;19.50;98719.00;;;;4982025;28;82934;-55
2022/06/06 05:33:33;;;;;;;6.55;2.97;;;18.90;99.90;20.30;98716.00;;;;4941903;28;82489;-57
2022/06/06 05:36:26;;;;;;;5.30;3.15;;;19.70;99.90;20.60;98713.00;;;;4940078;28;83413;-56
2022/06/06 05:39:20;;;;;;;7.47;3.17;;;20.00;99.90;19.40;98722.00;;;;4963832;28;84641;-57
2022/06/06 05:41:55;;;;;;;6.65;2.72;;;19.50;99.90;19.40;98721.00;;;;4982776;28;82000;-57
2022/06/06 05:45:10;;;;;;;5.70;2.58;;;19.00;99.90;18.70;98720.00;;;;4981381;28;83435;-52
2022/06/06 05:48:28;;;;;;;7.03;3.03;;;18.70;99.90;19.30;98724.00;;;;4963925;28;82012;-55
2022/06/06 05:51:10;;;;;;;4.72;2.80;;;18.80;99.90;19.70;98720.00;;;;4982144;28;83472;-55
2022/06/06 05:53:51;;;;;;;4.95;2.72;;;19.30;99.90;19.10;98719.00;;;;4972677;28;82030;-58
2022/06/06 05:56:32;;;;;;;5.50;3.17;;;18.80;99.90;19.30;98730.00;;;;4983252;28;82812;-55
2022/06/06 05:59:26;;;;;;;4.45;2.88;;;19.10;99.90;19.60;98730.00;;;;4983447;28;83104;-57
2022/06/06 06:02:02;;;;;;;6.70;3.03;;;19.20;99.90;19.80;98734.00;;;;4982796;28;82185;-57
2022/06/06 06:04:40;;;;;;;4.70;2.95;;;19.30;99.90;20.10;98741.00;;;;4986829;28;83282;-57
2022/06/06 06:07:52;;;;;;;5.30;3.17;;;19.60;99.90;20.00;98732.00;;;;4993751;28;82507;-58
2022/06/06 06:11:03;;;;;;;5.32;3.20;;;19.40;99.90;20.30;98733.00;;;;4971723;28;83633;-59
2022/06/06 06:13:45;;;;;;;5.10;2.95;;;19.60;99.90;20.40;98726.00;;;;4945239;28;82535;-58
2022/06/06 06:16:11;;;;;;;6.60;3.40;;;19.90;99.90;19.50;98737.00;;;;4982048;28;82195;-55
2022/06/06 06:18:48;;;;;;;5.03;3.00;;;19.20;99.90;19.30;98740.00;;;;4964596;28;82623;-55
2022/06/06 06:21:29;;;;;;;9.23;3.17;;;19.10;99.90;18.70;98731.00;;;;4981676;28;83777;-56
2022/06/06 06:24:12;;;;;;;4.57;2.80;;;18.50;99.90;19.20;98744.00;;;;4991456;28;82453;-56
2022/06/06 06:26:39;;;;;;;10.68;3.50;;;18.80;99.90;18.90;98735.00;;;;4978431;28;82871;-57
2022/06/06 06:29:09;;;;;;;6.00;3.30;;;18.50;99.90;18.50;98742.00;;;;4980556;28;82358;-56
2022/06/06 06:31:41;;;;;;;4.88;2.78;;;18.40;99.90;18.50;98729.00;;;;4981055;28;84481;-55
2022/06/06 06:35:25;;;;;;;5.10;2.90;;;18.40;99.90;18.80;98715.00;;;;4980947;28;84405;-56
2022/06/06 06:37:57;;;;;;;7.30;3.45;;;18.60;99.90;19.00;98723.00;;;;4948269;28;82211;-57
2022/06/06 06:40:50;;;;;;;7.82;3.35;;;18.90;99.90;18.50;98735.00;;;;4970653;28;82996;-53
2022/06/06 06:43:32;;;;;;;6.03;3.60;;;18.50;99.90;18.60;98710.00;;;;4980274;28;83716;-57
2022/06/06 06:46:03;;;;;;;8.82;3.92;;;18.50;99.90;18.60;98710.00;;;;4964959;28;82905;-54
2022/06/06 06:48:41;;;;;;;5.25;3.22;;;18.60;99.90;18.50;98724.00;;;;4964801;28;82387;-55
2022/06/06 06:51:22;;;;;;;7.75;3.42;;;18.40;99.90;18.50;98709.00;;;;4964902;28;82817;-55
2022/06/06 06:54:44;;;;;;;5.28;3.00;;;18.50;99.90;18.70;98718.00;;;;4964303;28;82725;-58
2022/06/06 06:57:33;;;;;;;4.23;2.80;;;18.40;99.90;18.90;98724.00;;;;4971755;28;82328;-56
2022/06/06 07:00:22;;;;;;;5.57;3.00;;;18.80;99.90;18.40;98721.00;;;;4992244;28;82969;-59
2022/06/06 07:09:37;;;;;;;4.63;3.17;;;18.20;99.90;18.10;98717.00;;;;4983218;28;82286;-57
2022/06/06 07:12:20;;;;;;;5.70;2.60;;;18.10;99.90;18.60;98716.00;;;;4972607;28;82413;-56
2022/06/06 07:14:52;;;;;;;8.85;2.40;;;18.60;99.90;18.70;98708.00;;;;4968479;28;82925;-56
2022/06/06 07:17:20;;;;;;;5.50;2.53;;;18.60;99.90;18.80;98723.00;;;;4984411;28;82723;-55
2022/06/06 07:20:00;;;;;;;8.10;2.75;;;18.60;99.90;18.80;98713.00;;;;4977781;28;82336;-58
2022/06/06 07:25:25;;;;;;;6.55;2.53;;;18.70;99.90;19.00;98713.00;;;;4975673;28;83460;-54
2022/06/06 07:27:51;;;;;;;5.80;2.95;;;18.80;99.90;19.10;98713.00;;;;4989072;28;83715;-56
2022/06/06 07:30:21;;;;;;;6.20;2.38;;;19.00;99.90;19.40;98720.00;;;;4983574;28;83169;-58
2022/06/06 07:33:23;;;;;;;5.38;3.03;;;19.30;99.90;19.50;98704.00;;;;4984033;28;82475;-57
2022/06/06 07:36:26;;;;;;;6.57;2.40;;;19.30;99.90;19.20;98719.00;;;;4978764;28;83142;-55
2022/06/06 07:39:31;;;;;;;4.63;2.40;;;19.10;99.90;19.00;98708.00;;;;4979492;28;82555;-57
2022/06/06 07:42:50;;;;;;;5.68;2.95;;;18.80;99.90;18.70;98728.00;;;;4972543;28;82190;-56
2022/06/06 07:45:45;;;;;;;3.15;2.60;;;18.60;99.90;18.50;98728.00;;;;5006283;28;82030;-57
2022/06/06 07:49:05;;;;;;;4.57;2.60;;;18.40;99.90;18.60;98718.00;;;;4985443;28;82362;-52
2022/06/06 07:52:38;;;;;;;3.95;2.65;;;18.40;99.90;18.80;98721.00;;;;4982485;28;83186;-53
2022/06/06 07:55:29;;;;;;;4.05;2.38;;;18.70;99.90;18.60;98706.00;;;;4980220;28;82690;-55
2022/06/06 07:58:09;;;;;;;;;;;18.50;99.90;18.60;98709.00;;;;4969476;28;83014;-54
2022/06/06 08:00:36;;;;;;;4.05;2.58;;;18.50;99.90;18.70;98702.00;;;;4987080;28;82245;-54
2022/06/06 08:03:23;;;;;;;4.68;2.30;;;18.70;99.90;18.80;98694.00;;;;4999199;28;82625;-56
2022/06/06 08:06:37;;;;;;;5.32;2.75;;;18.70;99.90;19.00;98696.00;;;;4984140;28;82712;-55
2022/06/06 08:09:18;;;;;;;7.47;2.50;;;18.90;99.90;19.20;98689.00;;;;4887682;28;82296;-54
2022/06/06 08:12:09;;;;;;;3.07;2.33;;;19.10;99.90;19.80;98687.00;;;;4904317;28;82546;-55
2022/06/06 08:14:48;;;;;;;;;;;19.70;99.90;20.20;98688.00;;;;4967373;28;82541;-55
2022/06/06 08:18:01;;;;;;;5.72;2.72;;;20.00;99.90;20.20;98683.00;;;;4985384;28;82846;-63
2022/06/06 08:20:50;;;;;;;3.30;2.40;;;19.90;99.90;19.30;98687.00;;;;4979096;28;82264;-64
2022/06/06 08:23:19;;;;;;;2.58;2.20;;;19.20;99.90;19.40;98688.00;;;;4966749;28;82482;-64
2022/06/06 08:25:48;;;;;;;5.53;2.78;;;19.20;99.90;19.10;98695.00;;;;5004036;28;84569;-63
2022/06/06 08:28:16;;;;;;;3.20;2.35;;;18.80;99.90;18.80;98696.00;;;;5006030;28;83388;-63
2022/06/06 08:30:46;;;;;;;5.38;2.60;;;18.70;99.90;18.70;98692.00;;;;4983438;28;82372;-62
2022/06/06 08:33:13;;;;;;;6.45;2.65;;;18.50;99.90;18.80;98686.00;;;;4983182;28;82286;-64
2022/06/06 08:36:30;;;;;;;3.88;2.67;;;18.70;99.90;18.70;98696.00;;;;4983605;28;82986;-64
2022/06/06 08:39:15;;;;;;;3.25;2.13;;;18.70;99.90;18.90;98684.00;;;;4978136;28;82394;-62
2022/06/06 08:41:56;;;;;;;8.57;2.95;;;18.80;99.90;19.10;98689.00;;;;4958388;28;81908;-64
2022/06/06 08:45:04;;;;;;;3.45;2.15;;;18.90;99.90;19.40;98681.00;;;;4980013;28;83898;-64
2022/06/06 08:47:43;;;;;;;4.50;2.70;;;19.30;99.90;19.50;98682.00;;;;4983620;28;83301;-64
2022/06/06 08:53:28;;;;;;;6.03;2.30;;;19.50;99.90;19.90;98677.00;;;;4982762;28;83391;-64
2022/06/06 08:56:36;;;;;;;3.77;2.40;;;19.80;99.90;20.10;98663.00;;;;4983161;28;82357;-63
2022/06/06 08:59:38;;;;;;;3.67;2.40;;;19.80;99.90;20.40;98666.00;;;;4979827;28;82704;-63
2022/06/06 09:02:28;;;;;;;5.03;2.60;;;20.20;99.90;20.40;98662.00;;;;4959469;28;82359;-64
2022/06/06 09:05:28;;;;;;;3.15;2.42;;;20.20;99.90;20.40;98656.00;;;;4980945;28;82740;-62
2022/06/06 09:08:10;;;;;;;4.53;2.47;;;20.20;99.90;20.20;98656.00;;;;4979559;28;82245;-64
2022/06/06 09:10:44;;;;;;;6.18;2.05;;;19.90;99.90;20.20;98657.00;;;;4981600;28;83675;-62
2022/06/06 09:14:08;;;;;;;6.20;2.17;;;20.00;99.90;20.60;98658.00;;;;4982058;28;83905;-63
2022/06/06 09:17:04;;;;;;;3.28;1.85;;;20.40;99.90;20.70;98660.00;;;;4952131;28;82741;-63
2022/06/06 09:19:49;;;;;;;2.47;2.00;;;20.40;99.90;20.10;98682.00;;;;4982581;28;82467;-64
2022/06/06 09:22:29;;;;;;;4.10;2.13;;;20.00;99.90;19.90;98669.00;;;;5007017;28;84817;-62
2022/06/06 09:25:08;;;;;;;4.97;2.20;;;19.80;99.90;20.10;98663.00;;;;4980398;28;84442;-62
2022/06/06 09:27:55;;;;;;;5.00;1.95;;;19.90;99.90;20.50;98676.00;;;;4980936;28;82294;-64
2022/06/06 09:31:24;;;;;;;3.58;1.90;;;20.30;99.90;20.20;98690.00;;;;5007054;28;83718;-62
2022/06/06 09:33:58;;;;;;;6.78;2.10;;;20.10;99.90;20.30;98677.00;;;;5001996;28;82341;-63
2022/06/06 09:36:47;;;;;;;2.28;1.70;;;20.10;99.90;20.60;98695.00;;;;4981510;28;82382;-63
2022/06/06 09:39:55;;;;;;;3.78;1.67;;;20.30;99.90;20.40;98675.00;;;;4981982;28;82917;-63
2022/06/06 09:42:27;;;;;;;3.25;1.70;;;20.10;99.90;20.60;98681.00;;;;4976677;28;82311;-63
2022/06/06 09:45:17;;;;;;;2.35;1.40;;;20.40;99.90;20.20;98689.00;;;;4979142;28;82525;-63
2022/06/06 09:48:21;;;;;;;3.30;1.60;;;20.10;99.90;20.20;98686.00;;;;4985949;28;83165;-63
2022/06/06 09:51:09;;;;;;;2.88;1.60;;;20.00;99.90;20.50;98679.00;;;;4985900;28;82915;-63
2022/06/06 10:00:21;;;;;;;12.18;2.08;;;20.80;99.90;21.40;98658.00;;;;4981852;28;82385;-62
2022/06/06 10:03:30;;;;;;;3.17;1.83;;;21.10;99.90;21.50;98666.00;;;;4973200;28;82357;-61
2022/06/06 10:06:42;;;;;;;3.50;1.58;;;21.20;99.90;21.60;98667.00;;;;5016940;28;84217;-62
2022/06/06 10:10:06;;;;;;;1.92;1.42;;;21.30;99.90;21.70;98677.00;;;;4978274;28;84892;-63
2022/06/06 10:12:59;;;;;;;4.32;1.55;;;21.50;99.90;21.20;98695.00;;;;4973374;28;81708;-63
2022/06/06 10:15:50;;;;;;;4.82;1.80;;;21.00;99.90;20.60;98674.00;;;;5000808;28;82015;-63
2022/06/06 10:18:53;;;;;;;8.02;1.95;;;20.50;99.90;20.80;98659.00;;;;4981860;28;82448;-63
2022/06/06 10:21:41;;;;;;;4.95;1.63;;;20.50;99.90;21.00;98660.00;;;;4981602;28;83499;-63
2022/06/06 10:25:04;;;;;;;4.22;1.33;;;20.80;99.90;21.00;98673.00;;;;4981471;28;85410;-63
2022/06/06 10:28:07;;;;;;;3.53;1.42;;;20.90;99.90;20.60;98654.00;;;;4940369;28;82906;-61
2022/06/06 10:31:11;;;;;;;4.85;1.30;;;20.50;99.90;21.10;98663.00;;;;4980792;28;82925;-61
2022/06/06 10:34:06;;;;;;;4.47;1.77;;;20.80;99.90;21.30;98644.00;;;;4990587;28;84871;-63
2022/06/06 10:37:09;;;;;;;1.55;1.13;;;21.00;99.90;20.70;98652.00;;;;4963185;28;82603;-63
2022/06/06 10:40:00;;;;;;;7.13;1.67;;;20.50;99.90;20.70;98669.00;;;;4983021;28;82034;-63
2022/06/06 10:43:07;;;;;;;8.00;1.50;;;20.40;99.90;20.20;98676.00;;;;4958069;28;82379;-62
2022/06/06 10:45:38;;;;;;;3.05;1.50;;;20.10;99.90;20.20;98675.00;;;;4979142;28;82323;-63
2022/06/06 10:48:26;;;;;;;1.55;1.30;;;19.90;99.90;20.20;98669.00;;;;4981835;28;82554;-63
2022/06/06 10:51:39;;;;;;;6.22;1.30;;;19.90;99.90;20.10;98656.00;;;;4974890;28;83175;-62
2022/06/06 10:54:36;;;;;;;2.38;1.20;;;20.00;99.90;20.60;98655.00;;;;4974287;28;83417;-62
2022/06/06 10:57:46;;;;;;;2.92;1.30;;;20.30;99.90;20.80;98642.00;;;;4981365;28;83143;-62
2022/06/06 11:00:37;;;;;;;7.80;1.70;;;20.50;99.90;21.10;98653.00;;;;4980726;28;82341;-62
2022/06/06 11:03:38;;;;;;;2.42;1.08;;;20.70;99.90;20.80;98644.00;;;;4981055;28;82223;-62
2022/06/06 11:06:27;;;;;;;10.47;1.30;;;20.60;99.90;20.80;98653.00;;;;4980727;28;82465;-62
2022/06/06 11:09:11;;;;;;;3.63;1.33;;;20.60;99.90;20.60;98665.00;;;;4981404;28;82140;-62
2022/06/06 11:12:10;;;;;;;1.70;1.30;;;20.50;99.90;20.70;98650.00;;;;4981655;28;83666;-62
2022/06/06 11:14:46;;;;;;;7.15;1.10;;;20.50;99.90;20.70;98652.00;;;;4975728;28;81962;-62
2022/06/06 11:17:51;;;;;;;1.98;1.13;;;20.50;99.90;20.60;98649.00;;;;4972870;28;82338;-63
2022/06/06 11:20:52;;;;;;;4.25;1.10;;;20.40;99.90;20.70;98638.00;;;;4945165;28;83393;-62
2022/06/06 11:24:18;;;;;;;3.53;1.07;;;20.50;99.90;20.40;98666.00;;;;4997244;28;83300;-63
2022/06/06 11:26:53;;;;;;;3.45;1.10;;;20.20;99.90;20.20;98659.00;;;;4980508;28;82934;-63
2022/06/06 11:29:47;;;;;;;5.55;1.08;;;19.90;99.90;20.20;98647.00;;;;4979561;28;82416;-62
2022/06/06 11:32:54;;;;;;;2.20;1.27;;;20.10;99.90;20.40;98640.00;;;;4980929;28;82189;-62
2022/06/06 11:36:09;;;;;;;5.93;1.55;;;20.20;99.90;20.70;98647.00;;;;4979655;28;83134;-63
2022/06/06 11:38:53;;;;;;;5.68;1.20;;;20.40;99.90;20.50;98626.00;;;;4977334;28;81937;-62
2022/06/06 11:41:35;;;;;;;2.58;1.17;;;20.30;99.90;20.70;98632.00;;;;4980396;28;82710;-63
2022/06/06 11:44:15;;;;;;;2.67;1.10;;;20.50;99.90;20.80;98625.00;;;;4980492;28;83796;-62
2022/06/06 11:47:05;;;;;;;3.80;0.90;;;20.60;99.90;20.90;98620.00;;;;4981339;28;82461;-63
2022/06/06 11:50:01;;;;;;;1.73;1.10;;;20.70;99.90;21.10;98601.00;;;;4981086;28;83344;-62
2022/06/06 11:53:10;;;;;;;2.22;1.00;;;20.90;99.90;21.40;98612.00;;;;5003822;28;83243;-62
2022/06/06 11:56:35;;;;;;;5.07;1.13;;;21.10;99.90;21.60;98606.00;;;;4965715;28;82813;-62
2022/06/06 11:59:23;;;;;;;5.05;1.38;;;21.20;99.90;21.90;98587.00;;;;4969587;28;82391;-61
2022/06/06 12:02:04;;;;;;;3.25;0.85;;;21.70;98.00;21.50;98624.00;;;;5004445;28;82414;-62
2022/06/06 12:05:12;;;;;;;5.53;1.00;;;21.30;98.90;21.60;98613.00;;;;4989013;28;82411;-62
2022/06/06 12:08:15;;;;;;;8.55;1.25;;;21.40;99.40;21.40;98617.00;;;;4969382;28;82567;-62
2022/06/06 12:11:31;;;;;;;4.30;1.20;;;21.20;99.20;21.00;98624.00;;;;4973000;28;82462;-62
2022/06/06 12:14:47;;;;;;;2.30;1.00;;;21.00;98.20;21.00;98592.00;;;;4976385;28;82171;-62
2022/06/06 12:17:30;;;;;;;2.80;1.17;;;20.80;98.40;21.10;98607.00;;;;4986674;28;82634;-61
2022/06/06 12:20:14;;;;;;;;;;;20.90;98.40;21.40;98604.00;;;;4983480;28;84636;-62
2022/06/06 12:23:28;;;;;;;1.40;0.95;;;21.20;98.60;21.80;98592.00;;;;4984279;28;82186;-61
2022/06/06 12:26:03;;;;;;;2.92;1.25;;;21.50;96.90;22.00;98585.00;;;;4971089;28;81838;-63
2022/06/06 12:28:56;;;;;;;1.45;1.00;;;21.80;96.70;21.90;98603.00;;;;4981647;28;82262;-63
2022/06/06 12:31:47;;;;;;;1.17;0.80;;;21.80;97.10;21.80;98597.00;;;;4982520;28;82754;-62
2022/06/06 12:34:40;;;;;;;1.10;0.80;;;21.50;95.70;21.50;98599.00;;;;4984533;28;82543;-62
2022/06/06 12:37:30;;;;;;;5.78;0.85;;;21.40;96.20;21.50;98608.00;;;;5000505;28;82170;-62
2022/06/06 12:40:36;;;;;;;4.18;1.17;;;21.30;95.40;21.60;98598.00;;;;5003916;28;82385;-62
2022/06/06 12:43:21;;;;;;;2.55;0.75;;;21.40;96.10;21.40;98618.00;;;;5006999;28;82797;-62
2022/06/06 12:46:13;;;;;;;2.25;0.82;;;21.30;94.70;21.50;98595.00;;;;4983345;28;82768;-62